Time;durP1;ratioP1;P1;durP2;ratioP2;P2;SDS_P1;SDS_P2;PMS_P1;PMS_P2;Temp;Humidity;BMP_temperature;BMP_pressure;BME280_temperature;BME280_humidity;BME280_pressure;Samples;Min_cycle;Max_cycle;Signal;HPM_P1;HPM_P2
2022/03/03 00:02:25;;;;;;;12.00;8.67;;;;;;;-143.84;91.41;45199.50;5050300;28;20459;-74
2022/03/03 00:04:52;;;;;;;11.87;9.70;;;;;;;-143.84;91.49;45197.59;5050516;28;20517;-74
2022/03/03 00:07:19;;;;;;;12.50;10.43;;;;;;;-143.84;91.01;45214.72;5051357;28;20504;-74
2022/03/03 00:09:46;;;;;;;13.00;9.43;;;;;;;-143.84;90.83;45205.22;5051016;28;20516;-74
2022/03/03 00:12:13;;;;;;;11.80;9.60;;;;;;;-143.84;90.46;45191.88;5049446;28;20501;-74
2022/03/03 00:14:41;;;;;;;12.27;10.10;;;;;;;-143.84;90.49;45222.34;5060177;28;20429;-74
2022/03/03 00:17:08;;;;;;;13.83;9.60;;;;;;;-143.84;90.44;45201.41;5067968;28;20534;-74
2022/03/03 00:19:37;;;;;;;14.30;9.90;;;;;;;-143.84;91.41;45184.25;5069169;28;21003;-74
2022/03/03 00:22:04;;;;;;;13.00;9.80;;;;;;;-143.84;90.86;45191.88;5063381;28;20466;-74
2022/03/03 00:24:32;;;;;;;11.20;9.97;;;;;;;-143.84;90.84;45195.69;5062817;28;20438;-74
2022/03/03 00:26:59;;;;;;;13.00;9.30;;;;;;;-143.84;90.88;45174.75;5061515;28;21270;-74
2022/03/03 00:29:26;;;;;;;14.17;10.67;;;;;;;-143.84;90.48;45199.50;5071070;28;20464;-73
2022/03/03 00:31:54;;;;;;;14.10;9.50;;;;;;;-143.84;90.52;45169.03;5070413;28;20444;-73
2022/03/03 00:34:21;;;;;;;12.40;9.50;;;;;;;-143.84;90.37;45205.22;5070451;28;20533;-73
2022/03/03 00:36:50;;;;;;;14.37;9.50;;;;;;;-143.84;90.86;45193.78;5064621;28;20468;-73
2022/03/03 00:39:17;;;;;;;13.50;9.90;;;;;;;-143.84;90.56;45220.44;5058713;28;20850;-73
2022/03/03 00:41:44;;;;;;;10.97;9.50;;;;;;;-143.84;91.16;45193.78;5063859;28;20443;-73
2022/03/03 00:44:11;;;;;;;11.73;8.90;;;;;;;-143.84;91.19;45161.41;5058174;28;20842;-73
2022/03/03 00:46:39;;;;;;;10.83;9.53;;;;;;;-143.84;91.19;45180.47;5060825;28;20803;-73
2022/03/03 00:49:07;;;;;;;16.20;10.37;;;;;;;-143.84;91.06;45210.94;5054235;28;20536;-73
2022/03/03 00:51:34;;;;;;;16.30;9.63;;;;;;;-143.84;91.35;45184.25;5053627;28;21043;-73
2022/03/03 00:54:03;;;;;;;12.00;9.60;;;;;;;-143.84;91.35;45188.06;5054196;28;20962;-73
2022/03/03 00:56:31;;;;;;;13.00;9.80;;;;;;;-143.84;90.97;45226.16;5054470;28;20473;-74
2022/03/03 00:58:58;;;;;;;15.33;10.63;;;;;;;-143.84;91.32;45170.94;5054666;28;21021;-74
2022/03/03 01:01:25;;;;;;;13.80;9.90;;;;;;;-143.84;91.31;45191.88;5054626;28;20469;-74
2022/03/03 01:03:52;;;;;;;11.70;9.03;;;;;;;-143.84;90.61;45188.06;5054601;28;20442;-74
2022/03/03 01:06:19;;;;;;;11.00;9.33;;;;;;;-143.84;90.32;45172.84;5054011;28;21003;-74
2022/03/03 01:08:46;;;;;;;13.93;10.07;;;;;;;-143.84;90.35;45189.97;5054588;28;20437;-74
2022/03/03 01:11:15;;;;;;;13.30;10.07;;;;;;;-143.84;90.55;45165.22;5054410;28;20434;-73
2022/03/03 01:13:42;;;;;;;11.83;9.20;;;;;;;-143.84;89.93;45193.78;5054000;28;20940;-74
2022/03/03 01:16:09;;;;;;;11.70;10.10;;;;;;;-143.84;90.49;45212.84;5053538;28;20473;-74
2022/03/03 01:18:36;;;;;;;12.37;9.43;;;;;;;-143.84;90.00;45176.66;5054236;28;20442;-74
2022/03/03 01:21:03;;;;;;;13.93;10.00;;;;;;;-143.84;90.15;45186.16;5053430;28;20445;-74
2022/03/03 01:23:31;;;;;;;13.50;10.03;;;;;;;-143.84;90.32;45228.06;5054162;28;20539;-73
2022/03/03 01:25:58;;;;;;;9.50;8.37;;;;;;;-143.84;90.12;45222.34;5053913;28;20495;-74
2022/03/03 01:28:26;;;;;;;12.43;9.17;;;;;;;-143.84;89.87;45195.69;5053663;28;20446;-73
2022/03/03 01:30:54;;;;;;;12.17;8.83;;;;;;;-143.84;89.61;45188.06;5054001;28;20446;-73
2022/03/03 01:33:21;;;;;;;13.40;9.70;;;;;;;-143.84;89.63;45201.41;5053760;28;20450;-74
2022/03/03 01:35:48;;;;;;;16.10;10.73;;;;;;;-143.84;89.55;45218.53;5054385;28;20473;-74
2022/03/03 01:38:15;;;;;;;13.57;9.80;;;;;;;-143.84;89.45;45188.06;5053695;28;20499;-74
2022/03/03 01:40:43;;;;;;;12.60;10.17;;;;;;;-143.84;89.10;45207.13;5053946;28;20430;-74
2022/03/03 01:43:10;;;;;;;12.63;9.10;;;;;;;-143.84;89.42;45203.31;5054011;28;20946;-74
2022/03/03 01:45:38;;;;;;;12.03;10.70;;;;;;;-143.84;89.14;45220.44;5053698;28;20458;-73
2022/03/03 01:48:06;;;;;;;13.87;10.40;;;;;;;-143.84;89.30;45189.97;5053903;28;20511;-74
2022/03/03 01:50:33;;;;;;;14.13;9.07;;;;;;;-143.84;89.25;45209.03;5053370;28;20500;-74
2022/03/03 01:53:00;;;;;;;11.97;9.50;;;;;;;-143.84;89.06;45201.41;5053345;28;20500;-74
2022/03/03 01:55:27;;;;;;;13.53;9.23;;;;;;;-143.84;89.12;45197.59;5053417;28;20976;-74
2022/03/03 01:57:58;;;;;;;14.20;9.50;;;;;;;-143.84;89.00;45212.84;5053892;28;20490;-73
2022/03/03 02:00:25;;;;;;;13.47;9.07;;;;;;;-143.84;89.43;45210.94;5053255;28;20446;-74
2022/03/03 02:02:54;;;;;;;13.77;9.73;;;;;;;-143.84;89.25;45220.44;5053351;28;20429;-74
2022/03/03 02:05:21;;;;;;;10.17;8.30;;;;;;;-143.84;89.07;45212.84;5053382;28;20499;-74
2022/03/03 02:07:48;;;;;;;12.27;8.53;;;;;;;-143.84;88.37;45193.78;5053224;28;21322;-74
2022/03/03 02:10:15;;;;;;;14.13;10.13;;;;;;;-143.84;88.69;45216.63;5052825;28;20454;-74
2022/03/03 02:12:42;;;;;;;10.50;8.03;;;;;;;-143.84;88.30;45233.78;5053036;28;20430;-74
2022/03/03 02:15:17;;;;;;;15.00;9.90;;;;;;;-143.84;87.65;45207.13;5052730;28;20445;-74
2022/03/03 02:17:44;;;;;;;11.97;8.57;;;;;;;-143.84;87.92;45231.88;5052780;28;20482;-74
2022/03/03 02:20:21;;;;;;;10.93;9.37;;;;;;;-143.84;87.86;45203.31;5053292;28;20443;-74
2022/03/03 02:22:49;;;;;;;12.73;10.17;;;;;;;-143.84;88.25;45210.94;5053220;28;20489;-74
2022/03/03 02:25:17;;;;;;;13.40;9.30;;;;;;;-143.84;87.02;45224.25;5053232;28;20438;-74
2022/03/03 02:27:45;;;;;;;9.03;8.10;;;;;;;-143.84;86.79;45172.84;5053021;28;20473;-74
2022/03/03 02:30:13;;;;;;;12.90;9.60;;;;;;;-143.84;86.99;45226.16;5052897;28;20446;-74
2022/03/03 02:32:41;;;;;;;11.90;9.30;;;;;;;-143.84;87.20;45224.25;5052716;28;20829;-74
2022/03/03 02:35:09;;;;;;;11.80;8.57;;;;;;;-143.84;87.31;45212.84;5052059;28;20457;-74
2022/03/03 02:37:39;;;;;;;10.30;8.40;;;;;;;-143.84;86.70;45228.06;5051474;28;20516;-74
2022/03/03 02:40:09;;;;;;;9.63;8.20;;;;;;;-143.84;86.73;45228.06;5052437;28;20796;-74
2022/03/03 02:42:36;;;;;;;12.03;8.80;;;;;;;-143.84;86.58;45220.44;5051963;28;20433;-74
2022/03/03 02:45:05;;;;;;;12.27;9.10;;;;;;;-143.84;87.05;45207.13;5051901;28;20507;-74
2022/03/03 02:47:32;;;;;;;11.00;8.50;;;;;;;-143.84;87.43;45210.94;5052296;28;20552;-74
2022/03/03 02:49:59;;;;;;;10.27;7.97;;;;;;;-143.84;87.02;45218.53;5052075;28;20504;-74
2022/03/03 02:52:26;;;;;;;8.13;7.30;;;;;;;-143.84;87.01;45205.22;5052193;28;20457;-74
2022/03/03 02:54:55;;;;;;;12.10;9.43;;;;;;;-143.84;86.49;45216.63;5052281;28;20838;-74
2022/03/03 03:00:08;;;;;;;10.30;8.50;;;;;;;-143.84;86.96;45233.78;5052172;28;20437;-74
2022/03/03 03:02:35;;;;;;;11.37;8.90;;;;;;;-143.84;86.73;45222.34;5052320;28;20442;-74
2022/03/03 03:05:02;;;;;;;11.70;8.20;;;;;;;-143.84;86.23;45224.25;5052156;28;20498;-74
2022/03/03 03:07:29;;;;;;;9.00;7.73;;;;;;;-143.84;86.05;45241.41;5050981;28;20461;-74
2022/03/03 03:09:58;;;;;;;11.20;8.87;;;;;;;-143.84;86.18;45216.63;5051019;28;20446;-74
2022/03/03 03:12:25;;;;;;;13.47;8.30;;;;;;;-143.84;85.95;45231.88;5051642;28;20440;-74
2022/03/03 03:14:52;;;;;;;9.07;7.77;;;;;;;-143.84;86.35;45218.53;5051785;28;20446;-74
2022/03/03 03:17:19;;;;;;;8.70;7.40;;;;;;;-143.84;86.34;45243.31;5051956;28;20461;-74
2022/03/03 03:19:46;;;;;;;9.80;8.23;;;;;;;-143.84;86.20;45224.25;5051721;28;20492;-74
2022/03/03 03:22:13;;;;;;;13.87;10.03;;;;;;;-143.84;86.00;45207.13;5051749;28;20464;-74
2022/03/03 03:24:41;;;;;;;11.13;7.83;;;;;;;-143.84;86.57;45210.94;5051796;28;20838;-74
2022/03/03 03:27:09;;;;;;;12.47;9.17;;;;;;;-143.84;86.34;45207.13;5051592;28;20488;-74
2022/03/03 03:29:36;;;;;;;11.90;8.73;;;;;;;-143.84;86.11;45212.84;5051211;28;20451;-74
2022/03/03 03:32:04;;;;;;;10.57;8.47;;;;;;;-143.84;86.17;45231.88;5051501;28;20441;-74
2022/03/03 03:34:32;;;;;;;12.10;8.97;;;;;;;-143.84;86.31;45197.59;5051098;28;20464;-74
2022/03/03 03:36:59;;;;;;;10.53;8.40;;;;;;;-143.84;85.92;45201.41;5051325;28;20470;-74
2022/03/03 03:39:26;;;;;;;12.60;8.90;;;;;;;-143.84;86.27;45241.41;5051093;28;20444;-74
2022/03/03 03:41:54;;;;;;;11.83;9.23;;;;;;;-143.84;86.33;45195.69;5051540;28;20437;-74
2022/03/03 03:44:22;;;;;;;11.33;9.10;;;;;;;-143.84;86.47;45229.97;5051406;28;20513;-74
2022/03/03 03:46:49;;;;;;;11.70;8.90;;;;;;;-143.84;86.72;45249.00;5051099;28;20449;-74
2022/03/03 03:49:16;;;;;;;14.83;9.83;;;;;;;-143.84;86.71;45220.44;5050576;28;21007;-73
2022/03/03 03:51:45;;;;;;;11.83;8.60;;;;;;;-143.84;86.87;45201.41;5051302;28;20454;-73
2022/03/03 03:54:12;;;;;;;12.63;8.90;;;;;;;-143.84;87.44;45226.16;5050432;28;20438;-74
2022/03/03 03:56:39;;;;;;;16.47;9.07;;;;;;;-143.84;87.19;45220.44;5051297;28;20902;-74
2022/03/03 03:59:06;;;;;;;13.60;9.27;;;;;;;-143.84;87.10;45243.31;5048695;28;20453;-74
2022/03/03 04:01:35;;;;;;;11.97;9.70;;;;;;;-143.84;87.26;45195.69;5051164;28;20442;-74
2022/03/03 04:04:02;;;;;;;11.00;8.90;;;;;;;-143.84;87.84;45239.50;5051171;28;21004;-74
2022/03/03 04:06:29;;;;;;;12.60;8.60;;;;;;;-143.84;87.64;45212.84;5051191;28;20449;-73
2022/03/03 04:08:56;;;;;;;10.47;9.03;;;;;;;-143.84;87.42;45226.16;5051666;28;21084;-74
2022/03/03 04:11:23;;;;;;;10.63;8.90;;;;;;;-143.84;87.39;45191.88;5051613;28;20445;-74
2022/03/03 04:13:51;;;;;;;12.97;9.17;;;;;;;-143.84;86.99;45205.22;5051094;28;20516;-74
2022/03/03 04:16:18;;;;;;;14.03;10.30;;;;;;;-143.84;87.17;45229.97;5051020;28;20452;-74
2022/03/03 04:18:47;;;;;;;11.47;8.47;;;;;;;-143.84;87.33;45203.31;5051403;28;20507;-74
2022/03/03 04:21:14;;;;;;;12.10;9.57;;;;;;;-143.84;87.24;45207.13;5051092;28;20971;-74
2022/03/03 04:23:41;;;;;;;12.50;9.40;;;;;;;-143.84;87.39;45220.44;5051245;28;20485;-74
2022/03/03 04:26:09;;;;;;;9.07;7.63;;;;;;;-143.84;87.11;45197.59;5051255;28;20446;-74
2022/03/03 04:28:36;;;;;;;13.20;9.40;;;;;;;-143.84;87.23;45224.25;5051347;28;20433;-73
2022/03/03 04:31:03;;;;;;;10.53;8.40;;;;;;;-143.84;87.26;45205.22;5051189;28;20434;-74
2022/03/03 04:33:31;;;;;;;11.70;9.00;;;;;;;-143.84;87.30;45203.31;5050997;28;20877;-74
2022/03/03 04:35:59;;;;;;;8.97;7.60;;;;;;;-143.84;86.65;45216.63;5050903;28;20496;-74
2022/03/03 04:38:26;;;;;;;11.10;8.07;;;;;;;-143.84;86.85;45231.88;5050692;28;20481;-74
2022/03/03 04:40:53;;;;;;;10.57;8.00;;;;;;;-143.84;86.37;45205.22;5050942;28;20802;-74
2022/03/03 04:43:21;;;;;;;9.90;7.77;;;;;;;-143.84;85.88;45233.78;5050225;28;20434;-74
2022/03/03 04:45:48;;;;;;;11.57;7.57;;;;;;;-143.84;85.68;45226.16;5050184;28;20507;-74
2022/03/03 04:48:15;;;;;;;8.20;6.63;;;;;;;-143.84;85.33;45226.16;5050703;28;20445;-74
2022/03/03 04:50:42;;;;;;;8.50;6.63;;;;;;;-143.84;85.30;45228.06;5051013;28;20464;-74
2022/03/03 04:53:11;;;;;;;10.80;6.33;;;;;;;-143.84;84.71;45237.59;5050729;28;21008;-74
2022/03/03 04:55:38;;;;;;;7.17;6.47;;;;;;;-143.84;84.65;45207.13;5050638;28;20454;-74
2022/03/03 04:58:05;;;;;;;9.47;7.33;;;;;;;-143.84;84.61;45235.69;5051034;28;20561;-74
2022/03/03 05:00:32;;;;;;;9.73;6.93;;;;;;;-143.84;84.09;45220.44;5050131;28;20446;-74
2022/03/03 05:02:59;;;;;;;9.43;7.13;;;;;;;-143.84;84.00;45247.09;5053777;28;20875;-74
2022/03/03 05:05:26;;;;;;;7.83;7.07;;;;;;;-143.84;83.78;45216.63;5054152;28;20499;-74
2022/03/03 05:07:53;;;;;;;8.00;6.30;;;;;;;-143.84;83.82;45209.03;5054275;28;20510;-74
2022/03/03 05:10:22;;;;;;;9.63;7.13;;;;;;;-143.84;84.34;45220.44;5054126;28;21116;-74
2022/03/03 05:12:49;;;;;;;7.67;6.90;;;;;;;-143.84;83.48;45229.97;5053441;28;20563;-74
2022/03/03 05:15:16;;;;;;;10.40;8.30;;;;;;;-143.84;83.30;45216.63;5053262;28;20445;-74
2022/03/03 05:17:43;;;;;;;10.00;7.73;;;;;;;-143.84;83.37;45212.84;5054160;28;20461;-73
2022/03/03 05:20:12;;;;;;;7.33;6.63;;;;;;;-143.84;83.26;45235.69;5053917;28;20857;-74
2022/03/03 05:22:39;;;;;;;8.37;7.10;;;;;;;-143.84;83.41;45205.22;5054136;28;20504;-74
2022/03/03 05:25:07;;;;;;;7.87;7.10;;;;;;;-143.84;83.27;45212.84;5054066;28;20495;-74
2022/03/03 05:27:36;;;;;;;9.27;6.87;;;;;;;-143.84;82.82;45241.41;5054195;28;20434;-73
2022/03/03 05:30:03;;;;;;;9.97;7.37;;;;;;;-143.84;82.13;45228.06;5053504;28;20450;-73
2022/03/03 05:32:30;;;;;;;10.00;7.63;;;;;;;-143.84;82.38;45226.16;5054377;28;20441;-74
2022/03/03 05:34:58;;;;;;;9.17;7.60;;;;;;;-143.84;81.87;45233.78;5053442;28;20442;-73
2022/03/03 05:37:26;;;;;;;9.20;7.57;;;;;;;-143.84;82.30;45233.78;5053119;28;20877;-74
2022/03/03 05:39:54;;;;;;;6.83;6.13;;;;;;;-143.84;81.50;45212.84;5054136;28;20434;-74
2022/03/03 05:42:23;;;;;;;9.77;7.93;;;;;;;-143.84;81.11;45207.13;5053873;28;20465;-73
2022/03/03 05:44:52;;;;;;;9.50;7.83;;;;;;;-143.84;80.84;45226.16;5053300;28;20983;-74
2022/03/03 05:47:20;;;;;;;9.77;8.53;;;;;;;-143.84;80.67;45228.06;5053602;28;20511;-73
2022/03/03 05:49:50;;;;;;;9.90;7.67;;;;;;;-143.84;80.93;45209.03;5053516;28;20451;-74
2022/03/03 05:52:18;;;;;;;10.63;8.80;;;;;;;-143.84;81.42;45228.06;5053085;28;20435;-74
2022/03/03 05:54:45;;;;;;;9.60;8.40;;;;;;;-143.84;81.69;45218.53;5051289;28;20453;-73
2022/03/03 05:57:18;;;;;;;9.00;8.10;;;;;;;-143.84;82.17;45216.63;5051916;28;20485;-72
2022/03/03 05:59:48;;;;;;;10.43;7.93;;;;;;;-143.84;81.73;45241.41;5050153;28;20532;-72
2022/03/03 06:02:20;;;;;;;9.30;8.20;;;;;;;-143.84;81.74;45205.22;5060411;28;20499;-75
2022/03/03 06:04:49;;;;;;;8.97;7.77;;;;;;;-143.84;81.47;45212.84;5064610;28;20889;-73
2022/03/03 06:07:25;;;;;;;11.30;8.60;;;;;;;-143.84;81.15;45210.94;5061598;28;20558;-73
2022/03/03 06:09:56;;;;;;;10.23;7.63;;;;;;;-143.84;80.08;45245.19;5055503;28;20445;-73
2022/03/03 06:12:29;;;;;;;12.17;9.40;;;;;;;-143.84;80.13;45210.94;5062482;28;20509;-73
2022/03/03 06:15:03;;;;;;;13.27;10.43;;;;;;;-143.84;80.30;45239.50;5056034;28;20487;-73
2022/03/03 06:17:34;;;;;;;12.77;8.73;;;;;;;-143.84;80.62;45218.53;5061655;28;20476;-73
2022/03/03 06:20:02;;;;;;;14.23;9.23;;;;;;;-143.84;80.82;45209.03;5065005;28;20456;-73
2022/03/03 06:22:29;;;;;;;9.77;8.50;;;;;;;-143.84;81.01;45214.72;5054897;28;20551;-73
2022/03/03 06:24:56;;;;;;;8.50;7.60;;;;;;;-143.84;80.42;45224.25;5059366;28;20998;-73
2022/03/03 06:27:24;;;;;;;12.07;9.17;;;;;;;-143.84;80.40;45216.63;5052031;28;20511;-72
2022/03/03 06:29:51;;;;;;;11.93;9.30;;;;;;;-143.84;79.93;45214.72;5055024;28;20490;-73
2022/03/03 06:32:19;;;;;;;13.63;9.90;;;;;;;-143.84;80.22;45214.72;5054493;28;20458;-73
2022/03/03 06:34:48;;;;;;;10.67;8.90;;;;;;;-143.84;80.55;45218.53;5054318;28;20442;-73
2022/03/03 06:37:15;;;;;;;16.50;10.07;;;;;;;-143.84;79.96;45229.97;5054251;28;21314;-76
2022/03/03 06:39:42;;;;;;;11.50;8.87;;;;;;;-143.84;80.56;45205.22;5062155;28;20449;-75
2022/03/03 06:42:09;;;;;;;9.53;8.00;;;;;;;-143.84;80.44;45195.69;5060768;28;20456;-74
2022/03/03 06:44:37;;;;;;;18.13;11.80;;;;;;;-143.84;80.30;45228.06;5055458;28;20517;-73
2022/03/03 06:47:04;;;;;;;12.10;9.33;;;;;;;-143.84;80.05;45226.16;5058354;28;20850;-73
2022/03/03 06:49:31;;;;;;;12.30;9.13;;;;;;;-143.84;80.19;45220.44;5062496;28;20492;-72
2022/03/03 06:52:06;;;;;;;10.90;8.47;;;;;;;-143.84;80.00;45197.59;5055766;28;20962;-73
2022/03/03 06:54:34;;;;;;;12.30;8.47;;;;;;;-143.84;79.85;45189.97;5055283;28;20544;-74
2022/03/03 06:57:01;;;;;;;9.83;8.60;;;;;;;-143.84;79.84;45218.53;5058729;28;20449;-75
2022/03/03 06:59:31;;;;;;;16.60;11.07;;;;;;;-143.84;80.21;45195.69;5061577;28;20444;-73
2022/03/03 07:02:00;;;;;;;12.17;9.97;;;;;;;-143.84;80.84;45222.34;5053045;28;20473;-74
2022/03/03 07:04:29;;;;;;;12.03;10.03;;;;;;;-143.84;80.97;45193.78;5057944;28;20453;-74
2022/03/03 07:06:56;;;;;;;12.67;10.13;;;;;;;-143.84;81.27;45189.97;5057336;28;20460;-74
2022/03/03 07:09:26;;;;;;;11.57;8.70;;;;;;;-143.84;80.87;45193.78;5057490;28;20845;-74
2022/03/03 07:11:53;;;;;;;20.40;10.20;;;;;;;-143.84;80.96;45193.78;5060033;28;20523;-74
2022/03/03 07:14:20;;;;;;;13.83;10.27;;;;;;;-143.84;81.65;45201.41;5054401;28;20453;-74
2022/03/03 07:16:59;;;;;;;11.47;9.83;;;;;;;-143.84;81.73;45226.16;5058867;28;20989;-74
2022/03/03 07:19:41;;;;;;;11.40;10.10;;;;;;;-143.84;81.90;45229.97;5055716;28;20514;-74
2022/03/03 07:22:16;;;;;;;14.07;10.70;;;;;;;-143.84;82.34;45210.94;5051397;28;21165;-74
2022/03/03 07:24:47;;;;;;;17.00;10.50;;;;;;;-143.84;81.89;45201.41;5055667;28;20440;-78
2022/03/03 07:27:19;;;;;;;17.53;12.37;;;;;;;-143.84;81.93;45195.69;5056785;28;20515;-76
2022/03/03 07:29:51;;;;;;;27.10;14.27;;;;;;;-143.84;81.95;45222.34;5058089;28;20445;-76
2022/03/03 07:32:20;;;;;;;20.30;12.77;;;;;;;-143.84;81.41;45233.78;5058587;28;20447;-76
2022/03/03 07:34:57;;;;;;;14.80;11.20;;;;;;;-143.84;81.59;45199.50;5052711;28;20532;-75
2022/03/03 07:37:32;;;;;;;17.07;11.97;;;;;;;-143.84;81.40;45224.25;5058682;28;20533;-73
2022/03/03 07:40:06;;;;;;;13.83;11.40;;;;;;;-143.84;81.24;45169.03;5054692;28;20866;-74
2022/03/03 07:42:34;;;;;;;19.70;15.53;;;;;;;-143.84;82.43;45207.13;5060303;28;20453;-74
2022/03/03 07:45:03;;;;;;;16.57;12.10;;;;;;;-143.84;81.43;45220.44;5053799;28;20456;-74
2022/03/03 07:47:31;;;;;;;12.60;10.57;;;;;;;-143.84;81.27;45178.56;5058832;28;20456;-72
2022/03/03 07:49:58;;;;;;;15.93;10.43;;;;;;;-143.84;81.20;45210.94;5059948;28;21054;-73
2022/03/03 07:52:26;;;;;;;15.07;10.87;;;;;;;-143.84;81.71;45201.41;5051242;28;20860;-75
2022/03/03 07:54:54;;;;;;;15.17;11.57;;;;;;;-143.84;82.29;45222.34;5056826;28;20451;-74
2022/03/03 07:57:28;;;;;;;15.33;11.30;;;;;;;-143.84;82.42;45216.63;5048811;28;20459;-73
2022/03/03 08:00:00;;;;;;;18.33;12.53;;;;;;;-143.84;82.87;45218.53;5055954;28;20449;-74
2022/03/03 08:02:31;;;;;;;13.97;11.10;;;;;;;-143.84;83.28;45195.69;5053325;28;20963;-73
2022/03/03 08:05:01;;;;;;;14.13;10.77;;;;;;;-143.84;83.12;45216.63;5049593;28;20446;-74
2022/03/03 08:07:29;;;;;;;17.43;12.60;;;;;;;-143.84;83.14;45220.44;5053798;28;20437;-74
2022/03/03 08:10:00;;;;;;;15.23;11.53;;;;;;;-143.84;83.32;45189.97;5056117;28;21038;-73
2022/03/03 08:12:32;;;;;;;16.03;11.07;;;;;;;-143.84;82.41;45199.50;5062873;28;20451;-75
2022/03/03 08:15:00;;;;;;;18.27;12.83;;;;;;;-143.84;82.47;45180.47;5054822;28;20452;-71
2022/03/03 08:17:27;;;;;;;15.03;12.30;;;;;;;-143.84;81.70;45212.84;5052934;28;20503;-71
2022/03/03 08:19:56;;;;;;;17.67;11.40;;;;;;;-143.84;81.36;45212.84;5052155;28;20461;-71
2022/03/03 08:22:27;;;;;;;15.37;12.20;;;;;;;-143.84;80.99;45169.03;5043546;28;20453;-72
2022/03/03 08:24:56;;;;;;;20.57;14.70;;;;;;;-143.84;80.48;45220.44;5051854;28;20441;-71
2022/03/03 08:27:24;;;;;;;68.90;38.57;;;;;;;-143.84;80.68;45214.72;5055324;28;20572;-76
2022/03/03 08:29:54;;;;;;;20.40;14.40;;;;;;;-143.84;80.00;45180.47;5048855;28;21041;-72
2022/03/03 08:32:24;;;;;;;18.83;12.33;;;;;;;-143.84;79.56;45210.94;5048287;28;20457;-71
2022/03/03 08:35:08;;;;;;;18.37;13.30;;;;;;;-143.84;79.28;45180.47;5047879;28;20453;-70
2022/03/03 08:37:38;;;;;;;19.63;13.63;;;;;;;-143.84;79.53;45203.31;5051551;28;20997;-71
2022/03/03 08:40:07;;;;;;;28.60;14.63;;;;;;;-143.84;79.34;45209.03;5051958;28;20437;-72
2022/03/03 08:42:37;;;;;;;17.60;13.20;;;;;;;-143.84;79.42;45209.03;5052483;28;20441;-73
2022/03/03 08:45:10;;;;;;;23.10;15.90;;;;;;;-143.84;79.42;45212.84;5052469;28;20437;-73
2022/03/03 08:47:38;;;;;;;22.47;14.60;;;;;;;-143.84;79.25;45199.50;5051322;28;20495;-73
2022/03/03 08:50:10;;;;;;;20.40;12.47;;;;;;;-143.84;79.64;45199.50;5051256;28;20456;-73
2022/03/03 08:52:41;;;;;;;15.30;12.40;;;;;;;-143.84;78.71;45191.88;5031597;28;20447;-72
2022/03/03 08:55:11;;;;;;;16.00;12.30;;;;;;;-143.84;79.27;45197.59;5050545;28;20437;-73
2022/03/03 08:57:38;;;;;;;17.60;13.07;;;;;;;-143.84;80.45;45178.56;5051931;28;20927;-73
2022/03/03 09:00:10;;;;;;;18.70;12.00;;;;;;;-143.84;79.63;45170.94;5050883;28;20515;-73
2022/03/03 09:02:40;;;;;;;13.93;11.43;;;;;;;-143.84;79.17;45214.72;5051655;28;20482;-73
2022/03/03 09:05:08;;;;;;;19.30;12.10;;;;;;;-143.84;79.02;45222.34;5050174;28;20454;-73
2022/03/03 09:07:35;;;;;;;16.47;11.27;;;;;;;-143.84;78.77;45218.53;5050545;28;20507;-72
2022/03/03 09:10:03;;;;;;;16.00;11.80;;;;;;;-143.84;78.50;45218.53;5051456;28;20534;-72
2022/03/03 09:12:30;;;;;;;18.37;13.00;;;;;;;-143.84;78.71;45184.25;5050151;28;20453;-72
2022/03/03 09:14:57;;;;;;;15.00;12.33;;;;;;;-143.84;77.92;45193.78;5051153;28;20985;-72
2022/03/03 09:17:26;;;;;;;17.90;11.50;;;;;;;-143.84;77.65;45189.97;5051461;28;20506;-73
2022/03/03 09:19:53;;;;;;;18.70;11.13;;;;;;;-143.84;77.13;45203.31;5053888;28;20485;-74
2022/03/03 09:22:20;;;;;;;14.47;11.40;;;;;;;-143.84;76.52;45189.97;5048686;28;20457;-73
2022/03/03 09:24:47;;;;;;;14.23;11.67;;;;;;;-143.84;76.54;45210.94;5052350;28;20442;-72
2022/03/03 09:27:14;;;;;;;16.50;11.67;;;;;;;-143.84;74.91;45174.75;5053641;28;20445;-72
2022/03/03 09:29:42;;;;;;;11.60;9.80;;;;;;;-143.84;72.67;45163.31;5055447;28;20863;-73
2022/03/03 09:32:10;;;;;;;24.20;19.37;;;;;;;-143.84;70.72;45207.13;5054094;28;20450;-72
2022/03/03 09:34:38;;;;;;;19.20;13.50;;;;;;;-143.84;70.54;45191.88;5056819;28;20476;-73
2022/03/03 09:37:05;;;;;;;12.73;9.70;;;;;;;-143.84;70.06;45210.94;5052004;28;20449;-73
2022/03/03 09:39:33;;;;;;;11.63;8.70;;;;;;;-143.84;70.23;45178.56;5054492;28;20473;-73
2022/03/03 09:42:00;;;;;;;10.60;8.60;;;;;;;-143.84;69.92;45165.22;5062393;28;20446;-73
2022/03/03 09:44:28;;;;;;;12.60;7.37;;;;;;;-143.84;67.10;45199.50;5062964;28;20947;-73
2022/03/03 09:46:56;;;;;;;10.33;8.90;;;;;;;-143.84;66.22;45193.78;5059100;28;20445;-73
2022/03/03 09:49:23;;;;;;;9.80;8.80;;;;;;;-143.84;66.44;45180.47;5055193;28;21009;-73
2022/03/03 09:51:52;;;;;;;15.00;9.70;;;;;;;-143.84;66.89;45180.47;5055251;28;20469;-72
2022/03/03 09:54:19;;;;;;;11.47;9.10;;;;;;;-143.84;66.45;45170.94;5058288;28;20515;-73
2022/03/03 09:56:46;;;;;;;11.03;8.27;;;;;;;-143.84;64.60;45163.31;5055748;28;20449;-73
2022/03/03 09:59:14;;;;;;;8.80;7.90;;;;;;;-143.84;64.56;45174.75;5055370;28;20474;-71
2022/03/03 10:01:42;;;;;;;9.70;7.90;;;;;;;-143.84;64.15;45167.13;5055804;28;20450;-74
2022/03/03 10:04:16;;;;;;;8.57;7.70;;;;;;;-143.84;64.35;45155.69;5059406;28;20445;-75
2022/03/03 10:06:44;;;;;;;14.20;8.37;;;;;;;-143.84;64.62;45176.66;5052351;28;20457;-75
2022/03/03 10:09:13;;;;;;;7.73;7.00;;;;;;;-143.84;64.64;45189.97;5055712;28;20446;-74
2022/03/03 10:11:41;;;;;;;9.70;7.87;;;;;;;-143.84;64.05;45159.50;5051446;28;20461;-75
2022/03/03 10:14:09;;;;;;;10.47;9.00;;;;;;;-143.84;65.02;45184.25;5055014;28;20453;-75
2022/03/03 10:16:36;;;;;;;7.90;7.10;;;;;;;-143.84;66.94;45153.81;5058454;28;20446;-74
2022/03/03 10:19:05;;;;;;;305.37;225.87;;;;;;;-143.84;65.46;45167.13;5054883;28;20862;-73
2022/03/03 10:21:37;;;;;;;12.13;7.87;;;;;;;-143.84;64.86;45144.28;5051784;28;20454;-71
2022/03/03 10:24:19;;;;;;;8.93;8.13;;;;;;;-143.84;64.09;45155.69;5052868;28;20489;-75
2022/03/03 10:26:47;;;;;;;19.60;11.70;;;;;;;-143.84;63.44;45189.97;5049943;28;20449;-71
2022/03/03 10:29:18;;;;;;;23.83;12.83;;;;;;;-143.84;64.17;45184.25;5054079;28;20452;-72
2022/03/03 10:31:50;;;;;;;25.43;12.87;;;;;;;-143.84;63.51;45155.69;5055407;28;21021;-70
2022/03/03 10:34:19;;;;;;;16.50;12.10;;;;;;;-143.84;62.89;45197.59;5051093;28;20464;-71
2022/03/03 10:36:56;;;;;;;15.50;10.10;;;;;;;-143.84;63.63;45169.03;5050319;28;20537;-71
2022/03/03 10:39:24;;;;;;;13.20;10.50;;;;;;;-143.84;63.02;45165.22;5063221;28;20484;-72
2022/03/03 10:41:56;;;;;;;10.27;7.13;;;;;;;-143.84;62.38;45174.75;5048417;28;20808;-72
2022/03/03 10:44:29;;;;;;;7.80;7.10;;;;;;;-143.84;62.27;45174.75;5049561;28;20873;-71
2022/03/03 10:47:05;;;;;;;7.83;7.03;;;;;;;-143.84;63.48;45167.13;5049932;28;20446;-71
2022/03/03 10:49:33;;;;;;;7.13;5.90;;;;;;;-143.84;61.92;45148.09;5063615;28;20457;-72
2022/03/03 10:52:11;;;;;;;9.60;8.23;;;;;;;-143.84;61.99;45150.00;5053290;28;20442;-73
2022/03/03 10:54:54;;;;;;;10.17;8.43;;;;;;;-143.84;62.25;45153.81;5052789;28;20452;-76
2022/03/03 10:57:39;;;;;;;6.70;6.07;;;;;;;-143.84;61.29;45157.59;5054856;28;21336;-71
2022/03/03 11:00:10;;;;;;;17.03;13.17;;;;;;;-143.84;61.07;45136.66;5061577;28;20491;-70
2022/03/03 11:02:39;;;;;;;6.67;6.07;;;;;;;-143.84;62.51;45189.97;5055029;28;20519;-72
2022/03/03 11:05:10;;;;;;;7.17;6.47;;;;;;;-143.84;60.60;45151.91;5051035;28;20588;-70
2022/03/03 11:07:40;;;;;;;6.23;5.47;;;;;;;-143.84;61.20;45151.91;5052613;28;20450;-70
2022/03/03 11:10:12;;;;;;;5.93;5.40;;;;;;;-143.84;59.34;45178.56;5052996;28;20453;-70
2022/03/03 11:12:39;;;;;;;6.30;5.70;;;;;;;-143.84;60.44;45151.91;5052484;28;20866;-70
2022/03/03 11:15:07;;;;;;;5.77;5.17;;;;;;;-143.84;59.96;45159.50;5054950;28;20451;-70
2022/03/03 11:17:35;;;;;;;7.60;5.57;;;;;;;-143.84;60.17;45150.00;5057354;28;20505;-70
2022/03/03 11:20:04;;;;;;;6.40;5.77;;;;;;;-143.84;60.67;45174.75;5061081;28;20564;-70